createdAt,value
2023-04-21T00:04:13.857Z,11.70
2023-04-21T00:09:15.807Z,12.38
2023-04-21T00:14:17.923Z,12.30
2023-04-21T00:19:20.372Z,12.20
2023-04-21T00:24:22.194Z,12.52
2023-04-21T00:29:23.779Z,12.38
2023-04-21T00:34:25.645Z,12.70
2023-04-21T00:39:27.311Z,13.75
2023-04-21T00:44:29.090Z,14.40
2023-04-21T00:49:32.741Z,12.95
2023-04-21T00:54:36.171Z,13.57
2023-04-21T00:59:37.868Z,13.85
2023-04-21T01:04:43.132Z,11.27
2023-04-21T01:09:44.819Z,13.95
2023-04-21T01:14:46.483Z,13.65
2023-04-21T01:19:48.529Z,14.80
2023-04-21T01:24:50.578Z,13.50
2023-04-21T01:29:52.814Z,14.18
2023-04-21T01:34:55.617Z,14.43
2023-04-21T01:39:59.233Z,14.50
2023-04-21T01:45:01.496Z,14.38
2023-04-21T01:50:04.034Z,16.88
2023-04-21T01:55:06.182Z,15.65
2023-04-21T02:00:09.990Z,16.15
2023-04-21T02:05:19.677Z,16.90
2023-04-21T02:10:21.456Z,16.58
2023-04-21T02:15:23.216Z,17.00
2023-04-21T02:20:24.984Z,19.08
2023-04-21T02:25:26.731Z,17.63
2023-04-21T02:30:28.518Z,16.33
2023-04-21T02:35:30.252Z,16.55
2023-04-21T02:40:32.661Z,17.20
2023-04-21T02:45:34.327Z,15.45
2023-04-21T02:50:36.488Z,15.30
2023-04-21T02:55:38.100Z,15.65
2023-04-21T03:00:40.115Z,15.13
2023-04-21T03:05:42.976Z,16.42
2023-04-21T03:10:44.575Z,16.50
2023-04-21T03:15:48.931Z,16.52
2023-04-21T03:20:51.295Z,16.92
2023-04-21T03:25:52.925Z,16.50
2023-04-21T03:30:54.554Z,16.48
2023-04-21T03:35:56.149Z,17.13
2023-04-21T03:40:57.744Z,17.70
2023-04-21T03:45:59.405Z,16.60
2023-04-21T03:51:01.101Z,17.55
2023-04-21T03:56:02.955Z,17.25
2023-04-21T04:01:06.537Z,16.38
2023-04-21T04:06:08.150Z,16.30
2023-04-21T04:11:09.784Z,17.25
2023-04-21T04:16:12.579Z,15.63
2023-04-21T04:21:14.231Z,16.38
2023-04-21T04:26:16.166Z,14.77
2023-04-21T04:31:18.046Z,16.10
2023-04-21T04:36:19.981Z,13.48
2023-04-21T04:41:22.593Z,14.40
2023-04-21T04:46:24.847Z,14.85
2023-04-21T04:51:26.872Z,12.30
2023-04-21T04:56:30.719Z,12.48
2023-04-21T05:01:32.408Z,11.18
2023-04-21T05:06:34.192Z,9.52
2023-04-21T05:11:35.845Z,9.32
2023-04-21T05:16:37.628Z,9.77
2023-04-21T05:21:39.369Z,10.70
2023-04-21T05:26:43.954Z,12.32
2023-04-21T05:31:45.714Z,13.85
2023-04-21T05:36:48.997Z,13.18
2023-04-21T05:41:50.664Z,13.63
2023-04-21T05:46:52.337Z,14.93
2023-04-21T05:51:53.942Z,15.40
2023-04-21T05:56:55.718Z,16.33
2023-04-21T06:01:57.494Z,15.95
2023-04-21T06:07:07.418Z,15.60
2023-04-21T06:12:09.095Z,14.45
2023-04-21T06:17:10.908Z,14.90
2023-04-21T06:22:12.502Z,14.43
2023-04-21T06:27:14.557Z,14.82
2023-04-21T06:32:16.136Z,15.57
2023-04-21T06:37:18.188Z,16.60
2023-04-21T06:42:19.899Z,17.13
2023-04-21T06:47:21.734Z,18.42
2023-04-21T06:52:23.540Z,19.52
2023-04-21T06:57:25.114Z,17.67
2023-04-21T07:02:26.816Z,19.95
2023-04-21T07:07:28.473Z,20.10
2023-04-21T07:12:30.317Z,19.83
2023-04-21T07:17:32.027Z,20.33
2023-04-21T07:22:34.663Z,20.15
2023-04-21T07:27:37.712Z,21.00
2023-04-21T07:32:39.356Z,20.58
2023-04-21T07:37:42.919Z,21.73
2023-04-21T07:42:44.528Z,21.42
2023-04-21T07:47:46.430Z,22.00
2023-04-21T07:52:48.223Z,21.10
2023-04-21T07:57:50.502Z,22.23
2023-04-21T08:02:55.381Z,22.20
2023-04-21T08:08:00.523Z,22.48
2023-04-21T08:13:03.362Z,23.05
2023-04-21T08:18:05.298Z,22.65
2023-04-21T08:23:07.071Z,23.23
2023-04-21T08:28:08.741Z,22.88
2023-04-21T08:33:13.744Z,23.33
2023-04-21T08:38:15.774Z,23.00
2023-04-21T08:43:17.430Z,24.10
2023-04-21T08:48:22.142Z,22.90
2023-04-21T08:53:25.250Z,22.92
2023-04-21T08:58:26.951Z,23.80
2023-04-21T09:03:29.141Z,22.90
2023-04-21T09:08:31.905Z,23.17
2023-04-21T09:13:35.963Z,20.50
2023-04-21T09:18:40.579Z,20.77
2023-04-21T09:23:50.635Z,21.63
2023-04-21T09:33:59.349Z,20.10
2023-04-21T09:44:09.672Z,21.00
2023-04-21T09:49:17.703Z,21.45
2023-04-21T09:59:32.413Z,21.10
2023-04-21T10:04:36.355Z,19.33
2023-04-21T10:09:58.166Z,21.23
2023-04-21T10:15:06.730Z,20.95
2023-04-21T10:20:09.869Z,21.20
2023-04-21T10:25:14.357Z,22.58
2023-04-21T10:30:24.216Z,20.88
2023-04-21T10:35:26.139Z,20.30
2023-04-21T10:40:44.844Z,19.02
2023-04-21T10:45:46.505Z,12.57
2023-04-21T10:50:48.843Z,21.00
2023-04-21T10:55:50.644Z,20.90
2023-04-21T11:00:55.714Z,21.10
2023-04-21T11:05:57.409Z,18.98
2023-04-21T11:10:59.029Z,19.85
2023-04-21T11:16:01.969Z,20.30
2023-04-21T11:21:18.359Z,22.02
2023-04-21T11:26:31.615Z,20.98
2023-04-21T11:31:33.981Z,20.00
2023-04-21T11:36:37.569Z,18.02
2023-04-21T11:41:44.038Z,19.40
2023-04-21T11:46:46.787Z,20.10
2023-04-21T11:51:50.344Z,19.50
2023-04-21T11:56:52.348Z,18.65
2023-04-21T12:01:54.714Z,19.80
2023-04-21T12:07:01.493Z,20.70
2023-04-21T12:12:05.465Z,17.35
2023-04-21T12:17:07.314Z,21.10
2023-04-21T12:22:09.648Z,19.63
2023-04-21T12:27:12.811Z,18.92
2023-04-21T12:32:15.323Z,20.70
2023-04-21T12:37:18.235Z,17.88
2023-04-21T12:42:19.895Z,19.92
2023-04-21T12:47:22.743Z,17.70
2023-04-21T12:52:24.523Z,20.73
2023-04-21T12:57:26.352Z,20.92
2023-04-21T13:02:28.500Z,17.45
2023-04-21T13:07:31.459Z,21.23
2023-04-21T13:12:33.498Z,19.80
2023-04-21T13:17:35.206Z,18.73
2023-04-21T13:22:36.955Z,18.42
2023-04-21T13:27:40.062Z,20.90
2023-04-21T13:32:44.212Z,19.92
2023-04-21T13:37:45.954Z,19.35
2023-04-21T13:42:47.701Z,17.85
2023-04-21T13:47:50.011Z,19.30
2023-04-21T13:52:51.694Z,14.65
2023-04-21T13:57:53.356Z,14.20
2023-04-21T14:02:56.083Z,19.75
2023-04-21T14:07:59.816Z,20.98
2023-04-21T14:13:01.415Z,21.38
2023-04-21T14:18:03.537Z,19.00
2023-04-21T14:23:05.806Z,20.15
2023-04-21T14:28:08.813Z,22.33
2023-04-21T14:33:10.724Z,20.27
2023-04-21T14:38:12.450Z,21.88
2023-04-21T14:43:14.066Z,23.02
2023-04-21T14:48:15.719Z,21.15
2023-04-21T14:53:17.492Z,21.88
2023-04-21T14:58:19.495Z,21.83
2023-04-21T15:03:21.389Z,21.60
2023-04-21T15:08:23.244Z,22.08
2023-04-21T15:13:24.945Z,21.30
2023-04-21T15:18:26.600Z,21.33
2023-04-21T15:23:29.199Z,22.23
2023-04-21T15:28:31.152Z,20.13
2023-04-21T15:33:33.173Z,21.33
2023-04-21T15:38:34.844Z,21.88
2023-04-21T15:43:36.536Z,21.25
2023-04-21T15:48:38.202Z,21.60
2023-04-21T15:53:47.247Z,21.70
2023-04-21T15:58:49.710Z,20.23
2023-04-21T16:03:51.986Z,22.80
2023-04-21T16:08:53.813Z,21.60
2023-04-21T16:13:56.393Z,22.40
2023-04-21T16:18:58.098Z,19.58
2023-04-21T16:23:59.886Z,21.98
2023-04-21T16:29:01.676Z,17.55
2023-04-21T16:34:03.423Z,22.48
2023-04-21T16:39:05.130Z,24.38
2023-04-21T16:44:06.729Z,25.17
2023-04-21T16:49:08.751Z,23.70
2023-04-21T16:54:14.039Z,24.65
2023-04-21T16:59:19.617Z,27.05
2023-04-21T17:04:21.365Z,24.52
2023-04-21T17:09:23.181Z,26.40
2023-04-21T17:14:24.966Z,23.40
2023-04-21T17:19:26.806Z,24.00
2023-04-21T17:24:35.363Z,22.92
2023-04-21T17:29:39.908Z,28.40
2023-04-21T17:34:41.649Z,29.05
2023-04-21T17:39:43.397Z,25.63
2023-04-21T17:44:45.073Z,23.25
2023-04-21T17:49:46.728Z,26.50
2023-04-21T17:54:48.920Z,23.02
2023-04-21T17:59:50.713Z,20.45
2023-04-21T18:04:52.600Z,24.55
2023-04-21T18:09:54.291Z,21.42
2023-04-21T18:14:56.090Z,21.55
2023-04-21T18:19:57.900Z,25.35
2023-04-21T18:24:59.630Z,20.60
2023-04-21T18:30:01.376Z,26.67
2023-04-21T18:35:04.782Z,24.60
2023-04-21T18:40:07.401Z,26.45
2023-04-21T18:45:09.630Z,24.35
2023-04-21T18:50:12.776Z,24.08
2023-04-21T18:55:15.470Z,23.25
2023-04-21T19:00:17.221Z,21.48
2023-04-21T19:05:19.449Z,23.65
2023-04-21T19:10:21.243Z,22.35
2023-04-21T19:15:22.854Z,21.33
2023-04-21T19:20:24.465Z,16.23
2023-04-21T19:25:26.283Z,18.30
2023-04-21T19:30:28.456Z,20.15
2023-04-21T19:35:30.164Z,19.23
2023-04-21T19:40:32.186Z,12.20
2023-04-21T19:45:37.761Z,6.05
2023-04-21T19:50:39.483Z,6.63
2023-04-21T19:55:43.282Z,3.88
2023-04-21T20:00:46.360Z,3.60
2023-04-21T20:05:50.380Z,3.55
2023-04-21T20:10:52.007Z,3.28
2023-04-21T20:15:53.662Z,2.88
2023-04-21T20:20:55.354Z,2.72
2023-04-21T20:25:58.007Z,2.80
2023-04-21T20:30:59.870Z,2.17
2023-04-21T20:36:07.207Z,2.40
2023-04-21T20:41:09.200Z,2.80
2023-04-21T20:46:11.182Z,2.08
2023-04-21T20:51:13.632Z,2.25
2023-04-21T20:56:15.559Z,3.22
2023-04-21T21:01:18.212Z,3.00
2023-04-21T21:06:20.162Z,2.40
2023-04-21T21:11:21.781Z,3.10
2023-04-21T21:16:23.713Z,4.65
2023-04-21T21:21:25.366Z,3.22
2023-04-21T21:26:27.211Z,3.08
2023-04-21T21:31:29.390Z,3.10
2023-04-21T21:36:32.694Z,2.80
2023-04-21T21:41:34.352Z,3.15
2023-04-21T21:46:36.403Z,3.55
2023-04-21T21:51:38.158Z,3.10
2023-04-21T21:56:39.789Z,3.50
2023-04-21T22:01:42.059Z,4.25
2023-04-21T22:06:45.258Z,3.47
2023-04-21T22:11:46.822Z,4.25
2023-04-21T22:16:48.921Z,3.97
2023-04-21T22:21:52.383Z,5.38
2023-04-21T22:26:53.951Z,5.28
2023-04-21T22:31:55.735Z,6.40
2023-04-21T22:36:57.703Z,7.10
2023-04-21T22:41:59.432Z,7.18
2023-04-21T22:47:01.185Z,9.48
2023-04-21T22:52:02.828Z,10.50
2023-04-21T22:57:04.773Z,11.45
2023-04-21T23:02:06.544Z,9.98
2023-04-21T23:07:08.382Z,10.45
2023-04-21T23:12:10.010Z,14.02
2023-04-21T23:17:11.749Z,12.00
2023-04-21T23:22:13.775Z,12.85
2023-04-21T23:27:15.371Z,10.63
2023-04-21T23:32:17.201Z,10.75
2023-04-21T23:37:19.512Z,11.65
2023-04-21T23:42:21.259Z,9.82
2023-04-21T23:47:22.851Z,9.68
2023-04-21T23:52:24.748Z,10.23
2023-04-21T23:57:26.789Z,11.52
